Main page
METAR-TAF:

METAR-TAF

Airports :

Ivalo Airport

Ivalo, Finland

latitude: 68-37N, longitude: 027-25E, elevation: 147 m

Current weather observation

The report was made 10 minutes ago, at 05:20 UTC
Wind 12 kt from the Southwest
Temperature 6°C
Humidity 65%
Pressure 1009 hPa
Visibility 10 km or more
no clouds below 1500 m and no cumulonimbus

METAR: EFIV 210520Z 22012KT CAVOK 06/M00 Q1009

Time: 08:30 (05:30 UTC)

Forecast

The report was made 2 hours and 52 minutes ago, at 02:38 UTC
Forecast valid from 21 at 03 UTC to 21 at 12 UTC
Wind 12 kt from the South/Southwest
Visibility 10 km or more
Few clouds at a height of 4000 ft
Broken clouds at a height of 6000 ft
light rain

TAF: EFIV 210238Z 2103/2112 21012KT 9999 -RA FEW040 BKN060

Weather observations and forecasts of more than 4000 airports (METAR and TAF reports).

The available stations are represented by yellow and red dots on the map.

Hover mouse over dot to see the name of the station.

Then click to see weather observations and forecasts.

To change the map : click on the green buttons with a black cross to zoom in, on the green button with a dash to zoom out, or on the green arrows for adjacent maps.


METAR-TAF: